Etusivu
METAR-TAF:

METAR-TAF

Lentoasemat :

Retalhuleu, Guatemala

Leveyspiiri: 14-32N, Pituuspiiri: 091-40W, korkeus merenpinnasta: 239 m

Tämänhetkinen sää

Tämä raportti tehtiin 27 minuuttia sitten, kello 18.00 UTC
Tuuli 8 kn lännestä
Lämpötila 33°C
Kosteus 53%
Ilmanpaine 1016 hPa
Näkyvyys: 8000 m
Hajanaisia pilviä 1800 ft:n korkeudessa
usvaa,

METAR: MGRT 031800Z 27008KT 8000 SCT018 33/22 Q1016 A3000 HZ VOL STA MARIA Y SATGO EN ACTV.

Aika: 12:27 (18:27 UTC)


TAF: puuttuu

Säähavainnot ja -ennusteet yli 4000 lentoasemalta (METAR- ja TAF-raportit).

Käytössä olevat sääasemat on merkitty karttaan keltaisilla ja punaisilla pisteillä.

Aseta hiiri pisteen päälle nähdäksesi sääaseman nimen.

Klikkaa sitten nähdäksesi säähavainnot ja -ennusteet.

Kartan vaihtaminen: klikkaa mustalla rastilla varustettuja vihreitä pisteitä, niin voit zoomata sisään; viivalla varustettua vihreää pistettä, niin voit zoomata ulos tai vihreitä nuolia, niin pääset viereisille kartoille.


METAR-TAF: